createdAt,value
2023-02-05T00:00:55.232Z,81.20
2023-02-05T00:03:22.395Z,81.90
2023-02-05T00:05:49.510Z,82.50
2023-02-05T00:08:16.622Z,82.30
2023-02-05T00:10:43.831Z,82.70
2023-02-05T00:13:11.203Z,82.20
2023-02-05T00:15:41.067Z,82.70
2023-02-05T00:18:08.194Z,82.00
2023-02-05T00:20:36.478Z,82.20
2023-02-05T00:23:04.299Z,81.80
2023-02-05T00:25:32.249Z,83.10
2023-02-05T00:28:00.652Z,83.50
2023-02-05T00:30:28.671Z,84.00
2023-02-05T00:32:56.511Z,84.20
2023-02-05T00:35:24.730Z,84.00
2023-02-05T00:37:51.887Z,83.50
2023-02-05T00:40:19.228Z,83.60
2023-02-05T00:42:46.367Z,82.20
2023-02-05T00:45:13.460Z,82.30
2023-02-05T00:47:40.624Z,82.20
2023-02-05T00:50:08.046Z,82.00
2023-02-05T00:52:35.899Z,81.80
2023-02-05T00:55:03.097Z,83.20
2023-02-05T00:57:30.637Z,82.00
2023-02-05T00:59:57.664Z,82.00
2023-02-05T01:02:25.773Z,82.30
2023-02-05T01:04:52.987Z,81.70
2023-02-05T01:07:20.645Z,81.30
2023-02-05T01:09:48.776Z,81.30
2023-02-05T01:12:16.045Z,81.80
2023-02-05T01:14:43.264Z,81.50
2023-02-05T01:17:10.574Z,82.10
2023-02-05T01:19:37.854Z,80.60
2023-02-05T01:22:05.592Z,81.00
2023-02-05T01:24:33.405Z,81.30
2023-02-05T01:27:01.023Z,81.60
2023-02-05T01:29:29.394Z,90.40
2023-02-05T01:31:57.007Z,92.40
2023-02-05T01:34:24.360Z,94.10
2023-02-05T01:36:51.543Z,95.10
2023-02-05T01:39:18.669Z,95.40
2023-02-05T01:41:46.589Z,95.70
2023-02-05T01:44:18.591Z,96.50
2023-02-05T01:46:47.100Z,97.00
2023-02-05T01:49:21.633Z,98.30
2023-02-05T01:51:49.196Z,98.70
2023-02-05T01:54:19.812Z,99.10
2023-02-05T01:56:52.716Z,99.90
2023-02-05T01:59:24.693Z,99.90
2023-02-05T02:01:53.134Z,99.90
2023-02-05T02:04:52.710Z,99.90
2023-02-05T02:07:23.370Z,99.90
2023-02-05T02:09:52.438Z,99.90
2023-02-05T02:12:26.535Z,99.90
2023-02-05T02:14:56.071Z,99.90
2023-02-05T02:17:25.548Z,99.90
2023-02-05T02:19:59.566Z,99.90
2023-02-05T02:22:42.151Z,99.90
2023-02-05T02:25:49.093Z,99.90
2023-02-05T02:28:38.450Z,99.90
2023-02-05T02:31:13.534Z,99.90
2023-02-05T02:34:02.889Z,99.90
2023-02-05T02:36:43.946Z,99.90
2023-02-05T02:39:22.293Z,99.90
2023-02-05T02:41:54.796Z,99.90
2023-02-05T02:44:49.423Z,99.90
2023-02-05T02:47:21.126Z,99.90
2023-02-05T02:49:57.039Z,99.90
2023-02-05T02:52:26.926Z,99.90
2023-02-05T02:54:57.932Z,99.90
2023-02-05T02:57:28.704Z,99.90
2023-02-05T03:00:01.354Z,99.90
2023-02-05T03:02:33.080Z,99.90
2023-02-05T03:05:07.337Z,99.90
2023-02-05T03:07:42.055Z,99.90
2023-02-05T03:10:22.698Z,99.90
2023-02-05T03:12:50.098Z,99.90
2023-02-05T03:15:17.713Z,99.90
2023-02-05T03:17:45.489Z,99.90
2023-02-05T03:20:21.530Z,99.90
2023-02-05T03:22:49.180Z,99.90
2023-02-05T03:25:19.361Z,99.90
2023-02-05T03:27:47.577Z,99.90
2023-02-05T03:30:15.711Z,99.90
2023-02-05T03:32:53.659Z,99.90
2023-02-05T03:35:44.133Z,99.90
2023-02-05T03:38:49.692Z,99.90
2023-02-05T03:42:02.046Z,99.90
2023-02-05T03:44:43.255Z,99.90
2023-02-05T03:47:18.574Z,99.90
2023-02-05T03:49:52.968Z,99.90
2023-02-05T03:52:25.648Z,99.90
2023-02-05T03:54:52.754Z,99.90
2023-02-05T03:57:29.620Z,99.90
2023-02-05T03:59:59.918Z,99.90
2023-02-05T04:02:29.489Z,99.90
2023-02-05T04:04:58.290Z,99.90
2023-02-05T04:07:25.723Z,99.90
2023-02-05T04:09:52.922Z,99.90
2023-02-05T04:12:20.252Z,99.90
2023-02-05T04:14:48.654Z,99.90
2023-02-05T04:17:15.979Z,99.90
2023-02-05T04:19:43.362Z,99.90
2023-02-05T04:22:12.487Z,99.90
2023-02-05T04:24:43.437Z,99.90
2023-02-05T04:27:11.102Z,99.90
2023-02-05T04:29:38.986Z,99.90
2023-02-05T04:32:07.235Z,99.90
2023-02-05T04:34:35.148Z,99.90
2023-02-05T04:37:03.639Z,99.90
2023-02-05T04:39:31.435Z,99.90
2023-02-05T04:41:58.629Z,99.90
2023-02-05T04:44:25.980Z,99.90
2023-02-05T04:46:53.069Z,99.90
2023-02-05T04:49:20.873Z,99.90
2023-02-05T04:51:48.099Z,99.90
2023-02-05T04:54:15.258Z,99.90
2023-02-05T04:56:42.771Z,99.90
2023-02-05T04:59:09.860Z,99.90
2023-02-05T05:01:37.383Z,99.70
2023-02-05T05:04:04.499Z,99.90
2023-02-05T05:06:32.046Z,99.70
2023-02-05T05:08:59.232Z,99.10
2023-02-05T05:11:26.796Z,99.50
2023-02-05T05:13:53.904Z,99.10
2023-02-05T05:16:21.054Z,98.80
2023-02-05T05:18:50.912Z,98.50
2023-02-05T05:21:18.084Z,99.00
2023-02-05T05:23:45.214Z,99.00
2023-02-05T05:26:12.736Z,98.40
2023-02-05T05:28:40.345Z,98.90
2023-02-05T05:31:10.101Z,98.20
2023-02-05T05:33:38.558Z,98.30
2023-02-05T05:36:07.293Z,98.10
2023-02-05T05:38:34.880Z,97.80
2023-02-05T05:41:22.149Z,97.80
2023-02-05T05:43:51.116Z,96.80
2023-02-05T05:46:22.957Z,96.80
2023-02-05T05:48:52.423Z,97.50
2023-02-05T05:51:20.453Z,97.30
2023-02-05T05:53:48.097Z,97.90
2023-02-05T05:56:16.079Z,96.70
2023-02-05T05:58:44.162Z,96.00
2023-02-05T06:01:13.035Z,95.60
2023-02-05T06:03:40.129Z,95.50
2023-02-05T06:06:09.060Z,95.30
2023-02-05T06:08:36.291Z,95.60
2023-02-05T06:11:03.822Z,95.30
2023-02-05T06:13:31.157Z,94.80
2023-02-05T06:15:58.497Z,95.40
2023-02-05T06:18:25.758Z,96.10
2023-02-05T06:20:52.958Z,95.50
2023-02-05T06:23:20.057Z,95.40
2023-02-05T06:25:47.413Z,94.90
2023-02-05T06:28:14.447Z,95.10
2023-02-05T06:30:41.790Z,95.00
2023-02-05T06:33:09.053Z,95.20
2023-02-05T06:35:36.648Z,95.10
2023-02-05T06:38:03.939Z,94.10
2023-02-05T06:40:31.121Z,94.10
2023-02-05T06:42:59.022Z,94.30
2023-02-05T06:45:26.224Z,93.80
2023-02-05T06:47:56.250Z,92.10
2023-02-05T06:50:24.148Z,90.50
2023-02-05T06:52:51.596Z,85.00
2023-02-05T06:55:19.072Z,80.10
2023-02-05T06:57:46.564Z,77.00
2023-02-05T07:00:16.085Z,72.80
2023-02-05T07:02:43.822Z,70.50
2023-02-05T07:05:11.024Z,70.20
2023-02-05T07:07:38.382Z,65.50
2023-02-05T07:10:05.823Z,63.20
2023-02-05T07:12:33.236Z,60.90
2023-02-05T07:15:00.522Z,56.80
2023-02-05T07:17:27.953Z,58.90
2023-02-05T07:19:55.223Z,56.80
2023-02-05T07:22:22.304Z,54.10
2023-02-05T07:24:49.598Z,56.30
2023-02-05T07:27:16.904Z,56.50
2023-02-05T07:29:44.243Z,53.20
2023-02-05T07:32:11.640Z,51.70
2023-02-05T07:34:38.995Z,50.80
2023-02-05T07:37:06.350Z,49.20
2023-02-05T07:39:33.547Z,49.30
2023-02-05T07:42:01.336Z,47.50
2023-02-05T07:44:37.256Z,48.70
2023-02-05T07:47:04.502Z,48.80
2023-02-05T07:49:31.684Z,48.90
2023-02-05T07:51:58.704Z,47.50
2023-02-05T07:54:26.100Z,46.80
2023-02-05T07:56:53.402Z,45.50
2023-02-05T07:59:20.801Z,44.00
2023-02-05T08:01:48.001Z,44.40
2023-02-05T08:04:15.096Z,44.60
2023-02-05T08:06:43.162Z,43.10
2023-02-05T08:09:11.445Z,41.60
2023-02-05T08:11:38.514Z,41.80
2023-02-05T08:14:05.798Z,42.10
2023-02-05T08:16:33.394Z,43.10
2023-02-05T08:19:00.711Z,42.20
2023-02-05T08:21:28.784Z,41.60
2023-02-05T08:23:58.688Z,41.60
2023-02-05T08:26:25.737Z,40.80
2023-02-05T08:28:52.834Z,41.90
2023-02-05T08:31:20.129Z,41.10
2023-02-05T08:33:47.922Z,41.40
2023-02-05T08:36:15.217Z,43.80
2023-02-05T08:38:42.594Z,42.90
2023-02-05T08:41:14.013Z,42.80
2023-02-05T08:43:45.806Z,41.70
2023-02-05T08:46:15.266Z,40.50
2023-02-05T08:48:42.735Z,41.10
2023-02-05T08:51:11.381Z,41.70
2023-02-05T08:53:38.773Z,40.70
2023-02-05T08:56:06.469Z,42.40
2023-02-05T08:58:33.609Z,42.20
2023-02-05T09:01:03.322Z,39.70
2023-02-05T09:03:31.384Z,40.50
2023-02-05T09:05:59.864Z,40.50
2023-02-05T09:08:29.410Z,41.00
2023-02-05T09:10:58.071Z,40.70
2023-02-05T09:13:25.893Z,41.00
2023-02-05T09:15:53.034Z,40.20
2023-02-05T09:18:20.317Z,42.50
2023-02-05T09:20:50.027Z,42.10
2023-02-05T09:23:18.602Z,40.30
2023-02-05T09:25:46.142Z,40.70
2023-02-05T09:28:14.895Z,41.00
2023-02-05T09:30:45.086Z,41.20
2023-02-05T09:33:13.203Z,40.40
2023-02-05T09:35:41.223Z,41.10
2023-02-05T09:38:08.416Z,41.50
2023-02-05T09:40:44.892Z,41.20
2023-02-05T09:43:21.788Z,41.30
2023-02-05T09:45:52.264Z,42.20
2023-02-05T09:48:40.524Z,42.50
2023-02-05T09:51:10.444Z,40.70
2023-02-05T09:53:42.784Z,40.60
2023-02-05T09:56:12.415Z,42.60
2023-02-05T09:58:47.699Z,42.50
2023-02-05T10:01:32.038Z,42.90
2023-02-05T10:04:03.341Z,41.70
2023-02-05T10:07:10.369Z,42.50
2023-02-05T10:09:39.829Z,43.00
2023-02-05T10:12:27.169Z,42.10
2023-02-05T10:15:17.377Z,44.70
2023-02-05T10:17:48.846Z,45.80
2023-02-05T10:20:31.813Z,47.60
2023-02-05T10:23:17.006Z,45.30
2023-02-05T10:26:07.402Z,46.60
2023-02-05T10:29:03.737Z,47.30
2023-02-05T10:32:10.757Z,50.20
2023-02-05T10:34:49.120Z,47.60
2023-02-05T10:37:19.825Z,51.80
2023-02-05T10:39:49.537Z,49.30
2023-02-05T10:42:17.813Z,49.70
2023-02-05T10:44:49.082Z,48.70
2023-02-05T10:47:16.145Z,51.20
2023-02-05T10:49:47.000Z,50.70
2023-02-05T10:52:15.599Z,50.80
2023-02-05T10:54:43.378Z,52.10
2023-02-05T10:57:14.773Z,50.70
2023-02-05T11:00:07.999Z,53.70
2023-02-05T11:02:40.965Z,52.60
2023-02-05T11:05:36.014Z,53.40
2023-02-05T11:08:03.930Z,52.20
2023-02-05T11:10:34.714Z,53.40
2023-02-05T11:13:21.531Z,52.40
2023-02-05T11:15:59.727Z,52.50
2023-02-05T11:18:32.970Z,51.80
2023-02-05T11:21:02.877Z,52.60
2023-02-05T11:23:32.293Z,51.20
2023-02-05T11:26:02.282Z,53.10
2023-02-05T11:28:32.119Z,53.00
2023-02-05T11:31:21.836Z,54.00
2023-02-05T11:33:49.582Z,53.00
2023-02-05T11:36:22.445Z,53.90
2023-02-05T11:38:54.036Z,54.00
2023-02-05T11:41:29.683Z,53.50
2023-02-05T11:44:01.234Z,53.00
2023-02-05T11:46:32.596Z,54.40
2023-02-05T11:49:02.154Z,54.70
2023-02-05T11:51:36.876Z,51.20
2023-02-05T11:54:13.218Z,54.90
2023-02-05T11:56:40.492Z,54.50
2023-02-05T11:59:22.132Z,53.40
2023-02-05T12:01:49.452Z,53.10
2023-02-05T12:04:19.909Z,54.40
2023-02-05T12:06:53.480Z,54.00
2023-02-05T12:09:24.312Z,51.10
2023-02-05T12:12:04.813Z,54.10
2023-02-05T12:15:05.130Z,52.40
2023-02-05T12:17:41.543Z,54.80
2023-02-05T12:20:33.188Z,55.90
2023-02-05T12:23:23.878Z,54.60
2023-02-05T12:25:58.069Z,56.80
2023-02-05T12:29:04.978Z,55.50
2023-02-05T12:31:48.867Z,52.90
2023-02-05T12:34:43.555Z,54.40
2023-02-05T12:37:25.435Z,55.00
2023-02-05T12:40:01.199Z,53.40
2023-02-05T12:42:39.920Z,55.90
2023-02-05T12:45:24.002Z,53.20
2023-02-05T12:47:58.519Z,53.60
2023-02-05T12:50:33.168Z,57.30
2023-02-05T12:53:20.041Z,53.80
2023-02-05T12:55:48.312Z,54.70
2023-02-05T12:58:17.248Z,55.10
2023-02-05T13:00:51.388Z,57.20
2023-02-05T13:03:42.425Z,55.90
2023-02-05T13:06:16.716Z,56.40
2023-02-05T13:08:58.361Z,55.40
2023-02-05T13:11:39.998Z,54.70
2023-02-05T13:14:16.279Z,56.40
2023-02-05T13:16:52.789Z,57.70
2023-02-05T13:19:42.780Z,57.30
2023-02-05T13:22:40.311Z,58.60
2023-02-05T13:25:47.518Z,58.20
2023-02-05T13:28:47.758Z,58.90
2023-02-05T13:31:24.614Z,58.60
2023-02-05T13:33:54.128Z,57.40
2023-02-05T13:36:24.495Z,58.00
2023-02-05T13:39:07.695Z,58.80
2023-02-05T13:41:38.352Z,59.80
2023-02-05T13:44:07.566Z,59.70
2023-02-05T13:46:41.059Z,60.60
2023-02-05T13:49:12.698Z,59.70
2023-02-05T13:52:04.279Z,59.90
2023-02-05T13:54:38.811Z,59.70
2023-02-05T13:57:18.309Z,59.60
2023-02-05T13:59:51.705Z,59.70
2023-02-05T14:02:40.783Z,60.00
2023-02-05T14:05:08.485Z,58.80
2023-02-05T14:07:43.276Z,62.60
2023-02-05T14:10:26.100Z,60.30
2023-02-05T14:12:54.568Z,58.80
2023-02-05T14:15:23.350Z,57.70
2023-02-05T14:17:50.461Z,57.40
2023-02-05T14:20:24.916Z,58.50
2023-02-05T14:22:55.934Z,58.50
2023-02-05T14:25:39.142Z,60.30
2023-02-05T14:28:17.532Z,60.50
2023-02-05T14:30:52.426Z,60.70
2023-02-05T14:33:41.533Z,57.20
2023-02-05T14:36:17.149Z,59.10
2023-02-05T14:38:51.235Z,61.20
2023-02-05T14:41:21.252Z,59.50
2023-02-05T14:44:16.735Z,61.20
2023-02-05T14:46:52.428Z,63.00
2023-02-05T14:49:26.367Z,63.20
2023-02-05T14:52:00.237Z,59.50
2023-02-05T14:54:33.101Z,60.00
2023-02-05T14:57:17.363Z,61.30
2023-02-05T15:00:02.531Z,61.60
2023-02-05T15:03:05.205Z,61.80
2023-02-05T15:05:52.216Z,61.40
2023-02-05T15:08:22.705Z,60.80
2023-02-05T15:11:16.983Z,61.10
2023-02-05T15:14:19.991Z,59.50
2023-02-05T15:17:10.818Z,59.10
2023-02-05T15:19:46.715Z,60.10
2023-02-05T15:22:52.244Z,61.00
2023-02-05T15:25:30.458Z,60.10
2023-02-05T15:28:05.422Z,60.60
2023-02-05T15:30:43.741Z,60.00
2023-02-05T15:33:20.277Z,62.30
2023-02-05T15:35:51.566Z,63.40
2023-02-05T15:38:19.734Z,63.30
2023-02-05T15:40:47.161Z,62.10
2023-02-05T15:43:17.757Z,61.10
2023-02-05T15:45:45.970Z,62.20
2023-02-05T15:48:18.015Z,64.00
2023-02-05T15:50:52.532Z,64.10
2023-02-05T15:53:47.160Z,66.10
2023-02-05T15:56:17.025Z,65.00
2023-02-05T15:58:55.207Z,65.80
2023-02-05T16:01:25.687Z,67.10
2023-02-05T16:03:52.971Z,66.60
2023-02-05T16:06:23.153Z,65.60
2023-02-05T16:08:53.657Z,68.60
2023-02-05T16:11:30.945Z,66.20
2023-02-05T16:14:16.816Z,66.50
2023-02-05T16:17:03.338Z,65.70
2023-02-05T16:19:40.856Z,66.20
2023-02-05T16:22:21.488Z,65.70
2023-02-05T16:24:51.898Z,64.80
2023-02-05T16:27:29.626Z,65.10
2023-02-05T16:29:59.519Z,64.90
2023-02-05T16:32:34.119Z,66.90
2023-02-05T16:35:01.784Z,65.20
2023-02-05T16:37:31.329Z,66.10
2023-02-05T16:40:02.207Z,66.90
2023-02-05T16:42:37.103Z,67.90
2023-02-05T16:45:19.680Z,69.80
2023-02-05T16:48:19.689Z,69.10
2023-02-05T16:50:46.855Z,68.80
2023-02-05T16:53:18.459Z,68.80
2023-02-05T16:55:45.741Z,68.10
2023-02-05T16:58:19.105Z,70.00
2023-02-05T17:00:54.202Z,69.90
2023-02-05T17:03:21.771Z,70.70
2023-02-05T17:06:00.579Z,71.10
2023-02-05T17:08:31.941Z,73.20
2023-02-05T17:11:03.345Z,76.30
2023-02-05T17:13:40.943Z,79.10
2023-02-05T17:16:24.517Z,75.90
2023-02-05T17:19:00.924Z,75.30
2023-02-05T17:21:31.844Z,76.20
2023-02-05T17:24:01.916Z,78.40
2023-02-05T17:26:32.382Z,80.80
2023-02-05T17:29:03.017Z,81.70
2023-02-05T17:31:32.365Z,82.10
2023-02-05T17:33:59.909Z,82.30
2023-02-05T17:36:27.934Z,83.80
2023-02-05T17:38:55.558Z,82.20
2023-02-05T17:41:45.488Z,83.60
2023-02-05T17:44:15.911Z,86.00
2023-02-05T17:46:44.376Z,85.20
2023-02-05T17:49:12.574Z,86.50
2023-02-05T17:51:42.791Z,88.10
2023-02-05T17:54:13.805Z,89.50
2023-02-05T17:56:42.413Z,87.90
2023-02-05T17:59:13.804Z,89.90
2023-02-05T18:01:41.302Z,88.20
2023-02-05T18:04:08.704Z,88.20
2023-02-05T18:06:37.270Z,87.60
2023-02-05T18:09:05.333Z,87.40
2023-02-05T18:11:32.789Z,89.30
2023-02-05T18:13:59.991Z,90.50
2023-02-05T18:16:27.607Z,90.20
2023-02-05T18:18:54.713Z,90.60
2023-02-05T18:21:22.078Z,90.90
2023-02-05T18:23:50.588Z,91.50
2023-02-05T18:26:18.073Z,91.20
2023-02-05T18:28:46.885Z,91.80
2023-02-05T18:31:14.892Z,92.60
2023-02-05T18:33:42.369Z,93.00
2023-02-05T18:36:11.915Z,94.10
2023-02-05T18:38:43.091Z,94.30
2023-02-05T18:41:16.156Z,93.50
2023-02-05T18:43:43.748Z,93.50
2023-02-05T18:46:14.830Z,93.60
2023-02-05T18:48:42.647Z,94.40
2023-02-05T18:51:13.988Z,94.90
2023-02-05T18:53:43.157Z,94.90
2023-02-05T18:56:15.347Z,95.30
2023-02-05T18:58:44.442Z,95.60
2023-02-05T19:01:15.116Z,95.80
2023-02-05T19:03:43.677Z,95.80
2023-02-05T19:06:13.749Z,95.50
2023-02-05T19:08:40.840Z,96.20
2023-02-05T19:11:10.668Z,96.30
2023-02-05T19:13:38.250Z,97.30
2023-02-05T19:16:06.696Z,98.90
2023-02-05T19:18:33.975Z,98.50
2023-02-05T19:21:06.317Z,98.80
2023-02-05T19:23:34.615Z,99.00
2023-02-05T19:26:04.976Z,99.90
2023-02-05T19:28:32.756Z,99.80
2023-02-05T19:31:05.868Z,99.90
2023-02-05T19:33:33.912Z,99.90
2023-02-05T19:36:02.155Z,99.90
2023-02-05T19:38:29.952Z,99.90
2023-02-05T19:40:57.138Z,99.90
2023-02-05T19:43:24.637Z,99.90
2023-02-05T19:45:51.944Z,99.90
2023-02-05T19:48:19.199Z,99.90
2023-02-05T19:50:46.284Z,99.90
2023-02-05T19:53:13.619Z,99.90
2023-02-05T19:55:40.727Z,99.90
2023-02-05T19:58:08.445Z,99.90
2023-02-05T20:00:35.755Z,99.90
2023-02-05T20:03:03.416Z,99.90
2023-02-05T20:05:30.597Z,99.90
2023-02-05T20:07:57.874Z,99.90
2023-02-05T20:10:24.870Z,99.90
2023-02-05T20:12:52.105Z,99.90
2023-02-05T20:15:19.556Z,99.90
2023-02-05T20:17:46.836Z,99.90
2023-02-05T20:20:22.239Z,99.90
2023-02-05T20:22:55.355Z,99.90
2023-02-05T20:25:22.422Z,99.90
2023-02-05T20:27:49.659Z,99.90
2023-02-05T20:30:36.786Z,99.90
2023-02-05T20:33:04.215Z,99.90
2023-02-05T20:35:31.366Z,99.90
2023-02-05T20:37:58.597Z,99.90
2023-02-05T20:40:25.889Z,99.90
2023-02-05T20:42:53.676Z,99.90
2023-02-05T20:45:20.990Z,99.90
2023-02-05T20:47:48.197Z,99.90
2023-02-05T20:50:15.703Z,99.90
2023-02-05T20:52:43.073Z,99.90
2023-02-05T20:55:10.192Z,99.90
2023-02-05T20:57:37.234Z,99.90
2023-02-05T21:00:04.835Z,99.90
2023-02-05T21:02:33.243Z,99.90
2023-02-05T21:05:00.378Z,99.90
2023-02-05T21:07:29.781Z,99.90
2023-02-05T21:09:57.379Z,99.90
2023-02-05T21:12:29.210Z,99.90
2023-02-05T21:14:56.367Z,99.90
2023-02-05T21:17:23.373Z,99.90
2023-02-05T21:19:50.561Z,99.90
2023-02-05T21:22:17.600Z,99.90
2023-02-05T21:24:44.723Z,99.90
2023-02-05T21:27:11.950Z,99.90
2023-02-05T21:29:39.245Z,99.90
2023-02-05T21:32:06.376Z,99.90
2023-02-05T21:34:33.903Z,99.90
2023-02-05T21:37:01.295Z,99.90
2023-02-05T21:39:28.677Z,99.90
2023-02-05T21:41:56.079Z,99.90
2023-02-05T21:44:24.503Z,99.90
2023-02-05T21:46:53.970Z,99.90
2023-02-05T21:49:21.094Z,99.90
2023-02-05T21:51:50.119Z,99.90
2023-02-05T21:54:17.456Z,99.90
2023-02-05T21:56:44.723Z,99.90
2023-02-05T21:59:13.269Z,99.90
2023-02-05T22:01:42.172Z,99.90
2023-02-05T22:04:12.718Z,99.90
2023-02-05T22:06:40.230Z,99.90
2023-02-05T22:09:09.904Z,99.90
2023-02-05T22:11:39.477Z,99.90
2023-02-05T22:14:07.221Z,99.90
2023-02-05T22:16:35.731Z,99.90
2023-02-05T22:19:04.120Z,99.90
2023-02-05T22:21:35.040Z,99.90
2023-02-05T22:24:04.149Z,99.90
2023-02-05T22:26:34.299Z,99.90
2023-02-05T22:29:02.676Z,99.90
2023-02-05T22:31:30.036Z,99.90
2023-02-05T22:33:57.642Z,99.90
2023-02-05T22:36:27.537Z,99.90
2023-02-05T22:38:55.988Z,99.90
2023-02-05T22:41:27.571Z,99.90
2023-02-05T22:43:56.046Z,99.90
2023-02-05T22:46:26.202Z,99.90
2023-02-05T22:48:54.548Z,99.90
2023-02-05T22:51:24.924Z,99.90
2023-02-05T22:53:53.989Z,99.90
2023-02-05T22:56:21.541Z,99.90
2023-02-05T22:58:49.750Z,99.90
2023-02-05T23:01:18.254Z,99.90
2023-02-05T23:03:47.058Z,99.90
2023-02-05T23:06:16.665Z,99.90
2023-02-05T23:08:45.074Z,99.90
2023-02-05T23:11:14.536Z,99.90
2023-02-05T23:13:42.549Z,99.90
2023-02-05T23:16:14.262Z,99.90
2023-02-05T23:18:42.342Z,99.90
2023-02-05T23:21:11.839Z,99.90
2023-02-05T23:23:38.926Z,99.90
2023-02-05T23:26:09.626Z,99.90
2023-02-05T23:28:37.634Z,99.90
2023-02-05T23:31:05.010Z,99.90
2023-02-05T23:33:33.652Z,99.90
2023-02-05T23:36:00.924Z,99.90
2023-02-05T23:38:28.782Z,99.90
2023-02-05T23:40:56.783Z,99.90
2023-02-05T23:43:24.518Z,99.90
2023-02-05T23:45:53.546Z,99.90
2023-02-05T23:48:20.851Z,99.90
2023-02-05T23:50:50.587Z,99.90
2023-02-05T23:53:21.070Z,99.90
2023-02-05T23:55:50.020Z,99.90
2023-02-05T23:58:18.913Z,99.90
